Mason City Municipal Airport
KMCW : now visible

Airfield :











YOU CAN JOIN US ON...

 
LOGIN :

Register | Disclaimer

   EN    FR    IT 

 









Legend :    VFR   Marginal VFR   IFR   Intensive IFR   Very Intensive IFR
Visi :
Ceiling :
>= 8 km
>= 3000ft
5 to 8 km
1000 to 3000 ft
1500m to 5 km
500 to 1000 ft
800 to 1500m
200 to 500 ft
< 800m
< 200 ft
Symbols :   Thunderstorms  Fog  Heavy snow  Heavy precipitations  Wind > 20 kt






- Airport Elevation : 1213 ft


KMCW - Mason City Municipal

CURRENT METAR :
  • 282353Z AUTO 32008KT 10SM -RA FEW031 BKN043 OVC095 09/07 A2994 RMK AO2 PK WND 32031/2333 RAB02 SLP138 P0002 60007 T00890067 10156 20089 53014

EXPIRED METARs :
  • 282253Z AUTO 33012KT 10SM BKN030 OVC070 11/08 A2992 RMK AO2 RAE06 SLP128 P0001 T01060078
  • 282153Z AUTO 33022G28KT 8SM -RA BKN033 BKN042 OVC070 10/07 A2991 RMK AO2 PK WND 33030/2139 RAE05B49 SLP128 P0000 T01000067

TAF KMCW
Valid from the 29 at 00:00 until the 30 at 00:00 UTC


282334Z 2900/2924 33011G17KT P6SM VCSH SCT030 BKN040 OVC060
TEMPO 2900/2902 5SM -SHRA BKN030
FM290300 31010KT P6SM SCT045 BKN070
FM291500 26011G17KT P6SM VCSH SCT050 BKN100
FM292100 32010KT P6SM SCT150
KZMP FIR / North America



MET'MAP, your aeronautical weather chart ! - Copyright ORBIFLY December 2007 - Disclaimer

ORBIFLY MET'MAP TEAM :

Programming & Development : Alexandra Zaïnal
Concept & original design : Baudouin d'Aumeries
Assistance for programming : Marc-Olivier Méhu
Technical & hardware support : Manuel Goepfert

Contact : metmap@orbifly.com




SOURCES & CREDITS :

   NOAA       Earth
Advisory